sensor_id;sensor_type;location;lat;lon;timestamp;pressure;altitude;pressure_sealevel;temperature;humidity
63903;BME280;50072;50.678;13.938;2022-07-29T00:01:16;99707.78;;;16.02;60.89
63903;BME280;50072;50.678;13.938;2022-07-29T00:03:42;99713.97;;;16.04;60.38
63903;BME280;50072;50.678;13.938;2022-07-29T00:06:11;99705.22;;;15.99;61.01
63903;BME280;50072;50.678;13.938;2022-07-29T00:08:43;99701.06;;;15.92;61.46
63903;BME280;50072;50.678;13.938;2022-07-29T00:11:17;99703.69;;;15.94;61.96
63903;BME280;50072;50.678;13.938;2022-07-29T00:13:49;99700.16;;;15.92;61.55
63903;BME280;50072;50.678;13.938;2022-07-29T00:16:16;99699.44;;;15.88;61.31
63903;BME280;50072;50.678;13.938;2022-07-29T00:18:48;99698.56;;;15.87;61.91
63903;BME280;50072;50.678;13.938;2022-07-29T00:21:15;99696.09;;;15.83;62.06
63903;BME280;50072;50.678;13.938;2022-07-29T00:23:47;99696.16;;;15.81;62.13
63903;BME280;50072;50.678;13.938;2022-07-29T00:26:17;99684.78;;;15.73;63.01
63903;BME280;50072;50.678;13.938;2022-07-29T00:28:47;99692.97;;;15.71;63.99
63903;BME280;50072;50.678;13.938;2022-07-29T00:31:18;99681.66;;;15.63;63.04
63903;BME280;50072;50.678;13.938;2022-07-29T00:33:48;99682.59;;;15.62;62.12
63903;BME280;50072;50.678;13.938;2022-07-29T00:36:20;99689.09;;;15.58;63.66
63903;BME280;50072;50.678;13.938;2022-07-29T00:38:48;99687.38;;;15.36;62.75
63903;BME280;50072;50.678;13.938;2022-07-29T00:41:17;99695.53;;;15.35;64.27
63903;BME280;50072;50.678;13.938;2022-07-29T00:43:43;99688.69;;;15.26;62.66
63903;BME280;50072;50.678;13.938;2022-07-29T00:46:13;99687.75;;;15.27;64.17
63903;BME280;50072;50.678;13.938;2022-07-29T00:48:43;99693.22;;;15.26;64.01
63903;BME280;50072;50.678;13.938;2022-07-29T00:51:11;99689.66;;;15.25;65.48
63903;BME280;50072;50.678;13.938;2022-07-29T00:53:44;99682.66;;;15.21;64.86
63903;BME280;50072;50.678;13.938;2022-07-29T00:56:18;99676.50;;;15.17;64.90
63903;BME280;50072;50.678;13.938;2022-07-29T00:58:46;99673.72;;;15.19;64.86
63903;BME280;50072;50.678;13.938;2022-07-29T01:01:17;99672.94;;;15.17;65.44
63903;BME280;50072;50.678;13.938;2022-07-29T01:03:43;99670.25;;;15.17;65.87
63903;BME280;50072;50.678;13.938;2022-07-29T01:06:19;99672.88;;;15.18;66.68
63903;BME280;50072;50.678;13.938;2022-07-29T01:08:47;99668.69;;;15.11;65.91
63903;BME280;50072;50.678;13.938;2022-07-29T01:11:17;99662.81;;;15.01;65.05
63903;BME280;50072;50.678;13.938;2022-07-29T01:13:45;99665.78;;;14.95;66.50
63903;BME280;50072;50.678;13.938;2022-07-29T01:16:21;99661.53;;;14.90;65.97
63903;BME280;50072;50.678;13.938;2022-07-29T01:18:56;99654.53;;;14.86;66.29
63903;BME280;50072;50.678;13.938;2022-07-29T01:24:30;99648.66;;;14.76;67.41
63903;BME280;50072;50.678;13.938;2022-07-29T01:27:45;99654.97;;;14.75;66.39
63903;BME280;50072;50.678;13.938;2022-07-29T01:29:59;99643.59;;;14.68;66.82
63903;BME280;50072;50.678;13.938;2022-07-29T01:32:29;99647.28;;;14.65;65.86
63903;BME280;50072;50.678;13.938;2022-07-29T01:35:05;99650.41;;;14.55;66.48
63903;BME280;50072;50.678;13.938;2022-07-29T01:37:43;99648.16;;;14.44;67.26
63903;BME280;50072;50.678;13.938;2022-07-29T01:40:22;99633.16;;;14.38;67.56
63903;BME280;50072;50.678;13.938;2022-07-29T01:42:51;99641.38;;;14.33;67.48
63903;BME280;50072;50.678;13.938;2022-07-29T01:48:49;99635.63;;;14.21;68.96
63903;BME280;50072;50.678;13.938;2022-07-29T01:51:21;99636.72;;;14.17;68.25
63903;BME280;50072;50.678;13.938;2022-07-29T01:56:36;99638.50;;;14.16;66.50
63903;BME280;50072;50.678;13.938;2022-07-29T01:59:05;99632.25;;;14.15;67.98
63903;BME280;50072;50.678;13.938;2022-07-29T02:01:35;99629.38;;;14.20;68.23
63903;BME280;50072;50.678;13.938;2022-07-29T02:04:10;99632.72;;;14.27;68.90
63903;BME280;50072;50.678;13.938;2022-07-29T02:06:49;99632.44;;;14.33;69.53
63903;BME280;50072;50.678;13.938;2022-07-29T02:09:19;99635.06;;;14.35;68.90
63903;BME280;50072;50.678;13.938;2022-07-29T02:11:53;99636.91;;;14.34;69.24
63903;BME280;50072;50.678;13.938;2022-07-29T02:14:22;99628.88;;;14.32;68.57
63903;BME280;50072;50.678;13.938;2022-07-29T02:16:52;99637.91;;;14.31;69.15
63903;BME280;50072;50.678;13.938;2022-07-29T02:19:21;99641.59;;;14.29;70.68
63903;BME280;50072;50.678;13.938;2022-07-29T02:21:48;99647.03;;;14.27;68.84
63903;BME280;50072;50.678;13.938;2022-07-29T02:24:19;99636.41;;;14.24;70.56
63903;BME280;50072;50.678;13.938;2022-07-29T02:26:50;99639.88;;;14.26;70.51
63903;BME280;50072;50.678;13.938;2022-07-29T02:29:19;99639.03;;;14.26;70.54
63903;BME280;50072;50.678;13.938;2022-07-29T02:31:48;99646.03;;;14.30;68.83
63903;BME280;50072;50.678;13.938;2022-07-29T02:34:18;99646.03;;;14.30;69.38
63903;BME280;50072;50.678;13.938;2022-07-29T02:36:45;99641.66;;;14.27;69.38
63903;BME280;50072;50.678;13.938;2022-07-29T02:39:20;99642.50;;;14.28;69.99
63903;BME280;50072;50.678;13.938;2022-07-29T02:41:50;99645.97;;;14.31;70.10
63903;BME280;50072;50.678;13.938;2022-07-29T02:44:21;99643.16;;;14.35;70.03
63903;BME280;50072;50.678;13.938;2022-07-29T02:50:02;99642.03;;;14.40;69.78
63903;BME280;50072;50.678;13.938;2022-07-29T02:53:12;99649.09;;;14.43;70.89
63903;BME280;50072;50.678;13.938;2022-07-29T02:55:52;99642.78;;;14.44;70.79
63903;BME280;50072;50.678;13.938;2022-07-29T02:58:40;99650.78;;;14.45;71.42
63903;BME280;50072;50.678;13.938;2022-07-29T03:01:21;99651.53;;;14.49;72.20
63903;BME280;50072;50.678;13.938;2022-07-29T03:03:50;99649.78;;;14.48;70.56
63903;BME280;50072;50.678;13.938;2022-07-29T03:06:18;99648.03;;;14.47;69.40
63903;BME280;50072;50.678;13.938;2022-07-29T03:08:48;99649.91;;;14.45;69.66
63903;BME280;50072;50.678;13.938;2022-07-29T03:11:20;99642.16;;;14.37;70.24
63903;BME280;50072;50.678;13.938;2022-07-29T03:13:47;99643.00;;;14.38;70.35
63903;BME280;50072;50.678;13.938;2022-07-29T03:16:15;99643.72;;;14.43;70.80
63903;BME280;50072;50.678;13.938;2022-07-29T03:18:42;99637.41;;;14.44;70.28
63903;BME280;50072;50.678;13.938;2022-07-29T03:21:08;99642.66;;;14.47;70.57
63903;BME280;50072;50.678;13.938;2022-07-29T03:23:43;99625.13;;;14.37;70.95
63903;BME280;50072;50.678;13.938;2022-07-29T03:26:11;99635.50;;;14.46;70.66
63903;BME280;50072;50.678;13.938;2022-07-29T03:28:44;99638.41;;;14.41;71.16
63903;BME280;50072;50.678;13.938;2022-07-29T03:31:10;99639.41;;;14.39;69.89
63903;BME280;50072;50.678;13.938;2022-07-29T03:33:41;99643.84;;;14.40;70.91
63903;BME280;50072;50.678;13.938;2022-07-29T03:36:07;99631.56;;;14.32;70.73
63903;BME280;50072;50.678;13.938;2022-07-29T03:38:42;99643.00;;;14.38;71.57
63903;BME280;50072;50.678;13.938;2022-07-29T03:41:11;99635.91;;;14.37;71.44
63903;BME280;50072;50.678;13.938;2022-07-29T03:43:46;99639.31;;;14.40;71.41
63903;BME280;50072;50.678;13.938;2022-07-29T03:46:16;99624.66;;;14.47;70.35
63903;BME280;50072;50.678;13.938;2022-07-29T03:48:48;99621.84;;;14.50;70.30
63903;BME280;50072;50.678;13.938;2022-07-29T03:51:21;99624.38;;;14.55;70.12
63903;BME280;50072;50.678;13.938;2022-07-29T03:53:47;99632.63;;;14.50;71.11
63903;BME280;50072;50.678;13.938;2022-07-29T03:56:21;99630.25;;;14.43;71.15
63903;BME280;50072;50.678;13.938;2022-07-29T03:58:50;99629.19;;;14.47;71.62
63903;BME280;50072;50.678;13.938;2022-07-29T04:01:17;99629.75;;;14.55;70.30
63903;BME280;50072;50.678;13.938;2022-07-29T04:03:44;99626.78;;;14.61;71.01
63903;BME280;50072;50.678;13.938;2022-07-29T04:06:13;99618.59;;;14.64;70.81
63903;BME280;50072;50.678;13.938;2022-07-29T04:08:38;99616.75;;;14.66;70.69
63903;BME280;50072;50.678;13.938;2022-07-29T04:11:04;99626.25;;;14.75;70.64
63903;BME280;50072;50.678;13.938;2022-07-29T04:13:31;99621.91;;;14.71;70.99
63903;BME280;50072;50.678;13.938;2022-07-29T04:15:59;99629.78;;;14.76;71.41
63903;BME280;50072;50.678;13.938;2022-07-29T04:18:25;99624.28;;;14.79;70.28
63903;BME280;50072;50.678;13.938;2022-07-29T04:20:51;99620.44;;;14.84;70.06
63903;BME280;50072;50.678;13.938;2022-07-29T04:23:17;99617.66;;;14.86;71.02
63903;BME280;50072;50.678;13.938;2022-07-29T04:25:44;99627.50;;;14.87;71.34
63903;BME280;50072;50.678;13.938;2022-07-29T04:28:10;99624.63;;;14.71;72.00
63903;BME280;50072;50.678;13.938;2022-07-29T04:30:36;99632.13;;;14.63;72.30
63903;BME280;50072;50.678;13.938;2022-07-29T04:33:04;99627.72;;;14.60;72.65
63903;BME280;50072;50.678;13.938;2022-07-29T04:35:34;99631.13;;;14.65;72.13
63903;BME280;50072;50.678;13.938;2022-07-29T04:38:00;99631.94;;;14.67;71.63
63903;BME280;50072;50.678;13.938;2022-07-29T04:40:27;99626.38;;;14.72;72.29
63903;BME280;50072;50.678;13.938;2022-07-29T04:42:53;99621.72;;;14.76;71.59
63903;BME280;50072;50.678;13.938;2022-07-29T04:45:19;99636.59;;;14.84;72.72
63903;BME280;50072;50.678;13.938;2022-07-29T04:47:45;99633.78;;;14.88;71.69
63903;BME280;50072;50.678;13.938;2022-07-29T04:50:10;99654.19;;;14.93;72.52
63903;BME280;50072;50.678;13.938;2022-07-29T04:52:36;99651.50;;;14.93;72.28
63903;BME280;50072;50.678;13.938;2022-07-29T04:55:04;99651.50;;;14.93;72.95
63903;BME280;50072;50.678;13.938;2022-07-29T04:57:31;99646.78;;;14.98;72.49
63903;BME280;50072;50.678;13.938;2022-07-29T04:59:57;99650.97;;;15.06;72.34
63903;BME280;50072;50.678;13.938;2022-07-29T05:02:24;99634.88;;;15.04;72.02
63903;BME280;50072;50.678;13.938;2022-07-29T05:04:50;99642.34;;;15.18;72.51
63903;BME280;50072;50.678;13.938;2022-07-29T05:07:21;99646.38;;;15.28;71.91
63903;BME280;50072;50.678;13.938;2022-07-29T05:09:49;99658.28;;;15.43;71.59
63903;BME280;50072;50.678;13.938;2022-07-29T05:12:17;99642.78;;;15.48;71.35
63903;BME280;50072;50.678;13.938;2022-07-29T05:14:44;99642.78;;;15.67;72.00
63903;BME280;50072;50.678;13.938;2022-07-29T05:17:15;99651.09;;;15.83;72.26
63903;BME280;50072;50.678;13.938;2022-07-29T05:19:41;99651.31;;;15.98;70.73
63903;BME280;50072;50.678;13.938;2022-07-29T05:22:07;99647.00;;;16.13;70.26
63903;BME280;50072;50.678;13.938;2022-07-29T05:24:35;99648.78;;;16.31;70.20
63903;BME280;50072;50.678;13.938;2022-07-29T05:27:02;99647.72;;;16.53;69.69
63903;BME280;50072;50.678;13.938;2022-07-29T05:29:29;99639.66;;;16.70;69.26
63903;BME280;50072;50.678;13.938;2022-07-29T05:31:55;99648.47;;;16.93;68.99
63903;BME280;50072;50.678;13.938;2022-07-29T05:34:21;99639.84;;;17.02;67.80
63903;BME280;50072;50.678;13.938;2022-07-29T05:36:47;99634.41;;;17.20;67.94
63903;BME280;50072;50.678;13.938;2022-07-29T05:39:13;99640.69;;;17.38;67.17
63903;BME280;50072;50.678;13.938;2022-07-29T05:41:39;99631.09;;;17.48;66.52
63903;BME280;50072;50.678;13.938;2022-07-29T05:44:06;99635.00;;;17.60;65.56
63903;BME280;50072;50.678;13.938;2022-07-29T05:46:32;99634.47;;;17.69;64.90
63903;BME280;50072;50.678;13.938;2022-07-29T05:48:58;99637.47;;;17.81;64.34
63903;BME280;50072;50.678;13.938;2022-07-29T05:51:25;99644.63;;;17.82;63.69
63903;BME280;50072;50.678;13.938;2022-07-29T05:53:51;99636.06;;;17.89;64.05
63903;BME280;50072;50.678;13.938;2022-07-29T05:56:17;99640.13;;;17.98;62.31
63903;BME280;50072;50.678;13.938;2022-07-29T05:58:44;99639.81;;;18.04;62.53
63903;BME280;50072;50.678;13.938;2022-07-29T06:01:10;99626.00;;;18.09;61.53
63903;BME280;50072;50.678;13.938;2022-07-29T06:03:37;99632.81;;;18.16;60.84
63903;BME280;50072;50.678;13.938;2022-07-29T06:06:04;99631.41;;;18.25;60.76
63903;BME280;50072;50.678;13.938;2022-07-29T06:08:31;99636.97;;;18.38;61.29
63903;BME280;50072;50.678;13.938;2022-07-29T06:11:03;99632.00;;;18.46;60.63
63903;BME280;50072;50.678;13.938;2022-07-29T06:13:30;99633.28;;;18.55;60.82
63903;BME280;50072;50.678;13.938;2022-07-29T06:15:57;99623.47;;;18.68;61.39
63903;BME280;50072;50.678;13.938;2022-07-29T06:18:23;99624.84;;;18.75;61.54
63903;BME280;50072;50.678;13.938;2022-07-29T06:20:50;99632.88;;;18.93;60.92
63903;BME280;50072;50.678;13.938;2022-07-29T06:23:17;99627.50;;;19.07;60.75
63903;BME280;50072;50.678;13.938;2022-07-29T06:25:44;99631.88;;;19.24;60.28
63903;BME280;50072;50.678;13.938;2022-07-29T06:28:10;99639.94;;;19.40;59.24
63903;BME280;50072;50.678;13.938;2022-07-29T06:30:37;99621.06;;;19.53;58.84
63903;BME280;50072;50.678;13.938;2022-07-29T06:33:04;99632.69;;;19.70;58.38
63903;BME280;50072;50.678;13.938;2022-07-29T06:35:34;99626.59;;;19.80;57.60
63903;BME280;50072;50.678;13.938;2022-07-29T06:38:02;99635.50;;;19.97;55.79
63903;BME280;50072;50.678;13.938;2022-07-29T06:40:27;99634.34;;;20.01;55.69
63903;BME280;50072;50.678;13.938;2022-07-29T06:43:13;99632.72;;;20.26;56.28
63903;BME280;50072;50.678;13.938;2022-07-29T06:45:39;99630.75;;;20.42;55.81
63903;BME280;50072;50.678;13.938;2022-07-29T06:48:06;99640.66;;;20.71;56.54
63903;BME280;50072;50.678;13.938;2022-07-29T06:50:33;99640.19;;;20.91;54.57
63903;BME280;50072;50.678;13.938;2022-07-29T06:52:58;99644.47;;;21.08;54.03
63903;BME280;50072;50.678;13.938;2022-07-29T06:55:24;99639.03;;;21.21;54.14
63903;BME280;50072;50.678;13.938;2022-07-29T06:57:50;99636.09;;;21.37;53.01
63903;BME280;50072;50.678;13.938;2022-07-29T07:00:17;99629.50;;;21.54;53.29
63903;BME280;50072;50.678;13.938;2022-07-29T07:02:43;99632.75;;;21.72;51.91
63903;BME280;50072;50.678;13.938;2022-07-29T07:05:09;99623.91;;;21.81;52.70
63903;BME280;50072;50.678;13.938;2022-07-29T07:07:36;99637.06;;;22.00;53.05
63903;BME280;50072;50.678;13.938;2022-07-29T07:10:03;99626.47;;;22.09;51.61
63903;BME280;50072;50.678;13.938;2022-07-29T07:12:30;99636.28;;;22.11;50.87
63903;BME280;50072;50.678;13.938;2022-07-29T07:14:56;99637.56;;;22.18;51.42
63903;BME280;50072;50.678;13.938;2022-07-29T07:17:22;99625.44;;;22.22;50.63
63903;BME280;50072;50.678;13.938;2022-07-29T07:19:49;99627.31;;;22.35;49.97
63903;BME280;50072;50.678;13.938;2022-07-29T07:22:14;99630.09;;;22.46;49.23
63903;BME280;50072;50.678;13.938;2022-07-29T07:24:42;99622.28;;;22.53;49.39
63903;BME280;50072;50.678;13.938;2022-07-29T07:27:10;99613.31;;;22.64;49.60
63903;BME280;50072;50.678;13.938;2022-07-29T07:29:35;99611.41;;;22.88;49.34
63903;BME280;50072;50.678;13.938;2022-07-29T07:32:03;99629.16;;;23.18;47.37
63903;BME280;50072;50.678;13.938;2022-07-29T07:34:30;99616.31;;;23.43;47.13
63903;BME280;50072;50.678;13.938;2022-07-29T07:36:55;99612.19;;;23.60;46.78
63903;BME280;50072;50.678;13.938;2022-07-29T07:39:21;99608.09;;;23.77;46.39
63903;BME280;50072;50.678;13.938;2022-07-29T07:41:47;99603.41;;;24.02;44.76
63903;BME280;50072;50.678;13.938;2022-07-29T07:44:13;99594.81;;;24.18;45.10
63903;BME280;50072;50.678;13.938;2022-07-29T07:46:38;99603.97;;;24.28;44.49
63903;BME280;50072;50.678;13.938;2022-07-29T07:49:04;99597.00;;;24.35;42.96
63903;BME280;50072;50.678;13.938;2022-07-29T07:51:30;99581.72;;;24.21;43.64
63903;BME280;50072;50.678;13.938;2022-07-29T07:53:56;99588.56;;;24.27;42.59
63903;BME280;50072;50.678;13.938;2022-07-29T07:56:22;99596.66;;;24.28;40.36
63903;BME280;50072;50.678;13.938;2022-07-29T07:58:48;99599.59;;;24.37;40.35
63903;BME280;50072;50.678;13.938;2022-07-29T08:01:14;99593.81;;;24.62;39.12
63903;BME280;50072;50.678;13.938;2022-07-29T08:03:44;99596.47;;;24.85;39.46
63903;BME280;50072;50.678;13.938;2022-07-29T08:06:10;99588.41;;;25.05;39.92
63903;BME280;50072;50.678;13.938;2022-07-29T08:08:36;99583.38;;;25.31;39.64
63903;BME280;50072;50.678;13.938;2022-07-29T08:11:02;99579.22;;;25.58;39.09
63903;BME280;50072;50.678;13.938;2022-07-29T08:13:29;99582.13;;;25.97;39.34
63903;BME280;50072;50.678;13.938;2022-07-29T08:15:56;99582.22;;;26.26;38.64
63903;BME280;50072;50.678;13.938;2022-07-29T08:18:39;99581.50;;;26.24;38.38
63903;BME280;50072;50.678;13.938;2022-07-29T08:21:07;99573.44;;;26.32;37.36
63903;BME280;50072;50.678;13.938;2022-07-29T08:23:33;99583.31;;;26.74;36.40
63903;BME280;50072;50.678;13.938;2022-07-29T08:26:12;99591.09;;;26.98;35.32
63903;BME280;50072;50.678;13.938;2022-07-29T08:28:42;99587.13;;;27.30;35.26
63903;BME280;50072;50.678;13.938;2022-07-29T08:31:14;99583.22;;;27.33;34.73
63903;BME280;50072;50.678;13.938;2022-07-29T08:33:40;99591.47;;;27.33;36.56
63903;BME280;50072;50.678;13.938;2022-07-29T08:36:06;99586.41;;;27.28;35.49
63903;BME280;50072;50.678;13.938;2022-07-29T08:38:34;99577.59;;;27.15;35.85
63903;BME280;50072;50.678;13.938;2022-07-29T08:41:01;99581.78;;;27.38;34.89
63903;BME280;50072;50.678;13.938;2022-07-29T08:43:31;99579.72;;;27.50;33.76
63903;BME280;50072;50.678;13.938;2022-07-29T08:46:00;99583.22;;;27.80;34.04
63903;BME280;50072;50.678;13.938;2022-07-29T08:48:25;99581.84;;;28.04;34.34
63903;BME280;50072;50.678;13.938;2022-07-29T08:50:55;99586.22;;;28.42;33.06
63903;BME280;50072;50.678;13.938;2022-07-29T08:53:25;99573.97;;;28.55;33.54
63903;BME280;50072;50.678;13.938;2022-07-29T08:55:52;99566.28;;;28.40;34.11
63903;BME280;50072;50.678;13.938;2022-07-29T08:58:18;99570.72;;;28.23;34.70
63903;BME280;50072;50.678;13.938;2022-07-29T09:00:48;99578.31;;;28.12;34.13
63903;BME280;50072;50.678;13.938;2022-07-29T09:03:18;99578.09;;;27.95;33.88
63903;BME280;50072;50.678;13.938;2022-07-29T09:05:46;99579.66;;;27.70;32.74
63903;BME280;50072;50.678;13.938;2022-07-29T09:08:13;99566.56;;;27.54;34.62
63903;BME280;50072;50.678;13.938;2022-07-29T09:10:40;99571.22;;;27.44;34.82
63903;BME280;50072;50.678;13.938;2022-07-29T09:13:06;99580.09;;;27.18;33.54
63903;BME280;50072;50.678;13.938;2022-07-29T09:15:32;99576.94;;;26.83;34.67
63903;BME280;50072;50.678;13.938;2022-07-29T09:17:58;99578.63;;;26.65;34.22
63903;BME280;50072;50.678;13.938;2022-07-29T09:20:25;99571.09;;;26.38;34.64
63903;BME280;50072;50.678;13.938;2022-07-29T09:22:52;99569.94;;;26.30;35.71
63903;BME280;50072;50.678;13.938;2022-07-29T09:25:32;99569.38;;;26.27;35.74
63903;BME280;50072;50.678;13.938;2022-07-29T09:28:10;99567.63;;;26.26;34.98
63903;BME280;50072;50.678;13.938;2022-07-29T09:30:56;99569.06;;;26.20;35.32
63903;BME280;50072;50.678;13.938;2022-07-29T09:33:31;99556.50;;;26.17;35.62
63903;BME280;50072;50.678;13.938;2022-07-29T09:36:03;99562.28;;;26.24;36.01
63903;BME280;50072;50.678;13.938;2022-07-29T09:38:31;99560.41;;;26.25;36.15
63903;BME280;50072;50.678;13.938;2022-07-29T09:40:58;99568.66;;;26.34;35.93
63903;BME280;50072;50.678;13.938;2022-07-29T09:43:24;99569.97;;;26.40;36.46
63903;BME280;50072;50.678;13.938;2022-07-29T09:45:51;99567.09;;;26.61;35.53
63903;BME280;50072;50.678;13.938;2022-07-29T09:48:19;99567.38;;;27.07;35.39
63903;BME280;50072;50.678;13.938;2022-07-29T09:50:46;99565.59;;;27.35;35.51
63903;BME280;50072;50.678;13.938;2022-07-29T09:53:37;99559.03;;;27.84;34.18
63903;BME280;50072;50.678;13.938;2022-07-29T09:56:04;99558.75;;;27.87;33.47
63903;BME280;50072;50.678;13.938;2022-07-29T09:58:30;99554.06;;;27.69;33.89
63903;BME280;50072;50.678;13.938;2022-07-29T10:00:59;99556.84;;;27.60;33.73
63903;BME280;50072;50.678;13.938;2022-07-29T10:03:25;99549.13;;;27.63;34.51
63903;BME280;50072;50.678;13.938;2022-07-29T10:08:30;99551.44;;;27.96;33.67
63903;BME280;50072;50.678;13.938;2022-07-29T10:11:12;99541.81;;;27.82;32.85
63903;BME280;50072;50.678;13.938;2022-07-29T10:13:40;99541.59;;;27.93;33.07
63903;BME280;50072;50.678;13.938;2022-07-29T10:16:07;99542.69;;;28.10;32.98
63903;BME280;50072;50.678;13.938;2022-07-29T10:18:35;99550.50;;;28.15;33.22
63903;BME280;50072;50.678;13.938;2022-07-29T10:21:01;99537.44;;;28.17;33.33
63903;BME280;50072;50.678;13.938;2022-07-29T10:23:30;99541.84;;;28.10;33.55
63903;BME280;50072;50.678;13.938;2022-07-29T10:25:56;99545.66;;;28.27;33.17
63903;BME280;50072;50.678;13.938;2022-07-29T10:28:23;99539.28;;;28.44;33.12
63903;BME280;50072;50.678;13.938;2022-07-29T10:30:52;99519.97;;;28.72;33.12
63903;BME280;50072;50.678;13.938;2022-07-29T10:38:55;99543.44;;;29.02;32.47
63903;BME280;50072;50.678;13.938;2022-07-29T10:44:18;99543.56;;;29.19;32.09
63903;BME280;50072;50.678;13.938;2022-07-29T10:46:46;99530.50;;;29.03;32.09
63903;BME280;50072;50.678;13.938;2022-07-29T10:49:21;99536.47;;;28.72;32.26
63903;BME280;50072;50.678;13.938;2022-07-29T10:57:33;99526.44;;;28.53;32.85
63903;BME280;50072;50.678;13.938;2022-07-29T11:02:43;99536.19;;;29.88;31.35
63903;BME280;50072;50.678;13.938;2022-07-29T11:05:14;99538.81;;;30.82;29.82
63903;BME280;50072;50.678;13.938;2022-07-29T11:08:24;99538.94;;;31.46;28.27
63903;BME280;50072;50.678;13.938;2022-07-29T11:10:52;99538.41;;;31.59;29.30
63903;BME280;50072;50.678;13.938;2022-07-29T11:16:18;99529.69;;;31.14;29.04
63903;BME280;50072;50.678;13.938;2022-07-29T11:19:23;99536.06;;;30.98;29.82
63903;BME280;50072;50.678;13.938;2022-07-29T11:21:49;99532.78;;;30.70;29.08
63903;BME280;50072;50.678;13.938;2022-07-29T11:24:22;99530.81;;;30.29;28.98
63903;BME280;50072;50.678;13.938;2022-07-29T11:27:15;99538.00;;;30.14;29.25
63903;BME280;50072;50.678;13.938;2022-07-29T11:29:58;99530.47;;;29.82;29.55
63903;BME280;50072;50.678;13.938;2022-07-29T11:32:36;99531.88;;;29.51;30.73
63903;BME280;50072;50.678;13.938;2022-07-29T11:37:41;99525.72;;;29.05;30.97
63903;BME280;50072;50.678;13.938;2022-07-29T11:40:14;99529.66;;;29.02;31.47
63903;BME280;50072;50.678;13.938;2022-07-29T11:42:43;99531.66;;;28.92;31.20
63903;BME280;50072;50.678;13.938;2022-07-29T11:45:20;99522.47;;;28.83;31.77
63903;BME280;50072;50.678;13.938;2022-07-29T11:47:51;99522.13;;;28.86;31.07
63903;BME280;50072;50.678;13.938;2022-07-29T11:50:33;99523.22;;;29.20;30.42
63903;BME280;50072;50.678;13.938;2022-07-29T11:53:02;99516.00;;;29.19;31.31
63903;BME280;50072;50.678;13.938;2022-07-29T11:55:30;99520.94;;;29.15;31.14
63903;BME280;50072;50.678;13.938;2022-07-29T11:58:06;99519.28;;;29.22;30.28
63903;BME280;50072;50.678;13.938;2022-07-29T12:00:40;99519.28;;;29.22;30.10
63903;BME280;50072;50.678;13.938;2022-07-29T12:03:10;99515.78;;;29.38;30.93
63903;BME280;50072;50.678;13.938;2022-07-29T12:05:43;99514.75;;;29.74;30.12
63903;BME280;50072;50.678;13.938;2022-07-29T12:08:18;99516.09;;;30.12;30.22
63903;BME280;50072;50.678;13.938;2022-07-29T12:10:47;99516.91;;;30.48;29.29
63903;BME280;50072;50.678;13.938;2022-07-29T12:13:16;99525.53;;;31.19;28.60
63903;BME280;50072;50.678;13.938;2022-07-29T12:15:55;99519.53;;;31.71;27.96
63903;BME280;50072;50.678;13.938;2022-07-29T12:18:25;99512.66;;;31.59;26.88
63903;BME280;50072;50.678;13.938;2022-07-29T12:21:00;99509.13;;;31.09;27.69
63903;BME280;50072;50.678;13.938;2022-07-29T12:23:31;99504.13;;;30.55;28.58
63903;BME280;50072;50.678;13.938;2022-07-29T12:25:59;99506.47;;;30.25;28.93
63903;BME280;50072;50.678;13.938;2022-07-29T12:28:26;99510.22;;;29.99;29.21
63903;BME280;50072;50.678;13.938;2022-07-29T12:30:53;99498.09;;;29.84;29.05
63903;BME280;50072;50.678;13.938;2022-07-29T12:33:29;99514.38;;;30.03;29.70
63903;BME280;50072;50.678;13.938;2022-07-29T12:36:00;99500.53;;;29.95;29.08
63903;BME280;50072;50.678;13.938;2022-07-29T12:38:27;99493.97;;;29.88;29.69
63903;BME280;50072;50.678;13.938;2022-07-29T12:40:54;99500.19;;;29.98;29.97
63903;BME280;50072;50.678;13.938;2022-07-29T12:43:23;99495.38;;;30.00;30.00
63903;BME280;50072;50.678;13.938;2022-07-29T12:45:51;99494.69;;;29.98;30.43
63903;BME280;50072;50.678;13.938;2022-07-29T12:48:39;99485.69;;;29.88;30.67
63903;BME280;50072;50.678;13.938;2022-07-29T12:51:07;99484.31;;;29.92;30.72
63903;BME280;50072;50.678;13.938;2022-07-29T12:53:39;99482.22;;;29.86;30.79
63903;BME280;50072;50.678;13.938;2022-07-29T12:56:15;99489.81;;;29.84;31.10
63903;BME280;50072;50.678;13.938;2022-07-29T12:58:42;99475.28;;;29.73;31.33
63903;BME280;50072;50.678;13.938;2022-07-29T13:01:14;99480.44;;;29.76;30.20
63903;BME280;50072;50.678;13.938;2022-07-29T13:09:20;99479.84;;;29.56;30.81
63903;BME280;50072;50.678;13.938;2022-07-29T13:11:50;99485.50;;;29.47;30.30
63903;BME280;50072;50.678;13.938;2022-07-29T13:17:09;99474.56;;;29.71;30.83
63903;BME280;50072;50.678;13.938;2022-07-29T13:19:40;99476.31;;;29.81;30.81
63903;BME280;50072;50.678;13.938;2022-07-29T13:22:21;99472.53;;;29.82;30.24
63903;BME280;50072;50.678;13.938;2022-07-29T13:24:57;99468.66;;;30.01;29.70
63903;BME280;50072;50.678;13.938;2022-07-29T13:27:26;99460.97;;;30.54;28.76
63903;BME280;50072;50.678;13.938;2022-07-29T13:29:53;99464.44;;;31.45;28.16
63903;BME280;50072;50.678;13.938;2022-07-29T13:32:22;99453.22;;;32.17;27.02
63903;BME280;50072;50.678;13.938;2022-07-29T13:34:49;99451.78;;;33.21;25.76
63903;BME280;50072;50.678;13.938;2022-07-29T13:37:15;99453.28;;;33.68;25.15
63903;BME280;50072;50.678;13.938;2022-07-29T13:39:42;99453.63;;;34.32;24.72
63903;BME280;50072;50.678;13.938;2022-07-29T13:42:08;99444.81;;;35.00;23.74
63903;BME280;50072;50.678;13.938;2022-07-29T13:44:35;99441.59;;;34.96;23.00
63903;BME280;50072;50.678;13.938;2022-07-29T13:47:01;99433.38;;;35.51;23.42
63903;BME280;50072;50.678;13.938;2022-07-29T13:49:27;99432.72;;;35.91;22.74